Time;durP1;ratioP1;P1;durP2;ratioP2;P2;SDS_P1;SDS_P2;PMS_P1;PMS_P2;Temp;Humidity;BMP_temperature;BMP_pressure;BME280_temperature;BME280_humidity;BME280_pressure;Samples;Min_cycle;Max_cycle;Signal;HPM_P1;HPM_P2
2022/07/04 00:02:03;;;;;;;4.35;1.65;;;;;;;14.75;100.00;101174.81;6125848;23;20005;-84
2022/07/04 00:04:28;;;;;;;7.75;1.30;;;;;;;14.81;100.00;101172.56;6124236;23;20010;-84
2022/07/04 00:06:54;;;;;;;4.40;1.40;;;;;;;14.86;100.00;101180.16;6124175;23;20151;-85
2022/07/04 00:09:19;;;;;;;2.63;1.58;;;;;;;14.86;100.00;101172.22;6148569;23;20093;-84
2022/07/04 00:11:44;;;;;;;3.22;1.20;;;;;;;14.86;100.00;101170.41;6125716;23;20009;-84
2022/07/04 00:14:10;;;;;;;4.60;1.58;;;;;;;14.78;100.00;101175.44;6125242;23;20005;-84
2022/07/04 00:16:35;;;;;;;5.38;1.20;;;;;;;14.70;100.00;101184.88;6124071;23;20005;-84
2022/07/04 00:19:01;;;;;;;2.03;1.00;;;;;;;14.83;100.00;101177.72;6125962;23;20016;-84
2022/07/04 00:21:27;;;;;;;8.70;1.30;;;;;;;14.65;100.00;101183.44;6125785;23;20002;-84
2022/07/04 00:23:52;;;;;;;6.22;1.52;;;;;;;14.77;100.00;101180.81;6125630;23;20082;-84
2022/07/04 00:26:18;;;;;;;5.72;1.30;;;;;;;14.77;100.00;101178.19;6125670;23;20001;-84
2022/07/04 00:28:43;;;;;;;4.00;1.50;;;;;;;14.79;100.00;101185.06;6125470;23;20006;-84
2022/07/04 00:31:08;;;;;;;1.92;0.90;;;;;;;14.85;100.00;101184.59;6125635;23;20085;-84
2022/07/04 00:33:34;;;;;;;3.65;1.48;;;;;;;14.81;100.00;101190.22;6125392;23;20455;-84
2022/07/04 00:35:59;;;;;;;3.90;1.13;;;;;;;14.74;100.00;101189.00;6125562;23;20010;-84
2022/07/04 00:38:25;;;;;;;2.50;1.23;;;;;;;14.78;100.00;101191.28;6125344;23;20325;-84
2022/07/04 00:40:50;;;;;;;6.03;1.20;;;;;;;14.75;100.00;101194.16;6125250;23;20002;-84
2022/07/04 00:43:24;;;;;;;4.00;1.40;;;;;;;14.58;100.00;101192.75;6148194;23;20068;-84
2022/07/04 00:45:49;;;;;;;4.07;1.40;;;;;;;14.55;100.00;101187.63;6125376;23;19998;-84
2022/07/04 00:48:15;;;;;;;9.13;1.33;;;;;;;14.59;100.00;101188.28;6125561;23;20034;-84
2022/07/04 00:50:42;;;;;;;3.47;1.50;;;;;;;14.63;100.00;101185.34;6125607;23;20425;-84
2022/07/04 00:53:08;;;;;;;5.65;1.42;;;;;;;14.55;100.00;101198.19;6123512;23;20013;-84
2022/07/04 00:55:33;;;;;;;9.13;1.58;;;;;;;14.06;100.00;101186.72;6125164;23;20521;-84
2022/07/04 00:57:59;;;;;;;8.20;1.80;;;;;;;13.90;100.00;101188.72;6125138;23;20049;-84
2022/07/04 01:00:24;;;;;;;3.50;1.30;;;;;;;13.70;100.00;101187.44;6125167;23;20010;-84
2022/07/04 01:02:50;;;;;;;2.58;1.17;;;;;;;13.82;100.00;101194.56;6125323;23;20005;-84
2022/07/04 01:05:15;;;;;;;6.43;1.70;;;;;;;13.44;100.00;101194.50;6125425;23;20444;-84
2022/07/04 01:07:42;;;;;;;8.68;1.98;;;;;;;13.70;100.00;101192.72;6125127;23;20010;-84
2022/07/04 01:10:08;;;;;;;5.13;1.50;;;;;;;13.73;100.00;101189.91;6124969;23;20507;-84
2022/07/04 01:12:34;;;;;;;5.18;1.65;;;;;;;13.80;100.00;101191.16;6125009;23;20007;-84
2022/07/04 01:14:59;;;;;;;4.53;1.60;;;;;;;13.98;100.00;101201.38;6125164;23;20002;-84
2022/07/04 01:17:25;;;;;;;5.72;1.80;;;;;;;13.96;100.00;101198.00;6124974;23;20329;-84
2022/07/04 01:19:50;;;;;;;5.28;1.90;;;;;;;13.93;100.00;101199.06;6125067;23;20009;-84
2022/07/04 01:22:16;;;;;;;4.88;1.90;;;;;;;13.92;100.00;101191.25;6124986;23;20002;-84
2022/07/04 01:24:42;;;;;;;3.45;1.38;;;;;;;13.89;100.00;101187.88;6125153;23;20518;-84
2022/07/04 01:27:07;;;;;;;3.92;1.63;;;;;;;13.86;100.00;101190.75;6147933;23;20081;-84
2022/07/04 01:29:32;;;;;;;3.30;1.83;;;;;;;13.96;100.00;101192.72;6124716;23;20009;-84
2022/07/04 01:32:04;;;;;;;2.10;1.50;;;;;;;14.08;100.00;101194.53;6124858;23;20009;-84
2022/07/04 01:34:29;;;;;;;3.25;1.27;;;;;;;13.96;100.00;101190.09;6124884;23;19998;-84
2022/07/04 01:36:55;;;;;;;2.95;1.67;;;;;;;13.86;100.00;101190.75;6147904;23;20077;-84
2022/07/04 01:39:20;;;;;;;4.50;1.80;;;;;;;14.01;100.00;101187.97;6124985;23;20081;-84
2022/07/04 01:41:45;;;;;;;5.75;1.50;;;;;;;13.93;100.00;101185.03;6124863;23;20009;-84
2022/07/04 01:44:11;;;;;;;3.30;1.60;;;;;;;13.89;100.00;101177.31;6125063;23;20009;-84
2022/07/04 01:46:36;;;;;;;3.33;1.50;;;;;;;13.79;100.00;101172.78;6124913;23;19998;-84
2022/07/04 01:49:01;;;;;;;2.35;1.25;;;;;;;13.91;100.00;101173.75;6124990;23;20013;-84
2022/07/04 01:51:27;;;;;;;3.15;1.20;;;;;;;13.98;100.00;101169.69;6124852;23;20521;-84
2022/07/04 01:53:52;;;;;;;3.17;1.00;;;;;;;13.89;100.00;101161.47;6124835;23;20025;-84
2022/07/04 01:56:17;;;;;;;4.68;1.65;;;;;;;13.94;100.00;101162.94;6124836;23;20444;-84
2022/07/04 01:58:43;;;;;;;3.80;1.58;;;;;;;14.08;100.00;101161.03;6124880;23;20002;-84
2022/07/04 02:03:52;;;;;;;3.45;1.50;;;;;;;14.32;100.00;101154.97;6124835;23;20013;-84
2022/07/04 02:06:17;;;;;;;8.10;1.80;;;;;;;14.34;100.00;101152.22;6124596;23;20010;-84
2022/07/04 02:11:26;;;;;;;3.75;1.67;;;;;;;14.19;100.00;101133.84;6124787;23;20041;-84
2022/07/04 02:13:52;;;;;;;2.22;1.40;;;;;;;14.31;100.00;101131.28;6124681;23;20010;-84
2022/07/04 02:16:18;;;;;;;4.85;2.13;;;;;;;14.38;100.00;101133.38;6125634;23;20013;-84
2022/07/04 02:18:43;;;;;;;5.35;1.63;;;;;;;14.44;100.00;101137.38;6126717;23;20006;-84
2022/07/04 02:21:08;;;;;;;5.10;1.20;;;;;;;14.49;100.00;101129.94;6127003;23;20421;-84
2022/07/04 02:23:33;;;;;;;4.78;1.40;;;;;;;14.46;100.00;101125.75;6126598;23;20037;-84
2022/07/04 02:25:59;;;;;;;3.15;1.10;;;;;;;14.54;100.00;101129.63;6126574;23;20041;-84
2022/07/04 02:28:24;;;;;;;3.42;1.40;;;;;;;14.32;100.00;101131.19;6149677;23;20014;-84
2022/07/04 02:30:50;;;;;;;3.88;1.17;;;;;;;14.51;100.00;101135.97;6126482;23;20006;-84
2022/07/04 02:33:15;;;;;;;3.90;1.25;;;;;;;14.53;100.00;101131.41;6126522;23;20013;-84
2022/07/04 02:35:40;;;;;;;6.97;1.42;;;;;;;14.45;100.00;101134.63;6126470;23;20073;-84
2022/07/04 02:38:06;;;;;;;4.80;1.58;;;;;;;14.53;100.00;101134.06;6124980;23;20061;-84
2022/07/04 02:40:31;;;;;;;4.50;1.55;;;;;;;14.54;100.00;101127.00;6126338;23;20081;-84
2022/07/04 02:42:56;;;;;;;1.75;1.05;;;;;;;14.60;100.00;101127.41;6124904;23;20004;-84
2022/07/04 02:45:22;;;;;;;4.40;1.30;;;;;;;14.60;100.00;101126.56;6126486;23;20057;-84
2022/07/04 02:47:47;;;;;;;3.78;1.10;;;;;;;14.65;100.00;101130.56;6124226;23;20041;-84
2022/07/04 02:50:12;;;;;;;2.60;1.10;;;;;;;14.63;100.00;101127.19;6126032;23;20009;-84
2022/07/04 02:52:38;;;;;;;3.08;1.40;;;;;;;14.67;100.00;101125.13;6126746;23;20006;-84
2022/07/04 02:55:04;;;;;;;7.07;1.40;;;;;;;14.73;100.00;101113.28;6126342;23;20038;-84
2022/07/04 02:57:29;;;;;;;7.50;1.60;;;;;;;14.72;100.00;101124.81;6126610;23;20433;-84
2022/07/04 02:59:54;;;;;;;3.75;1.45;;;;;;;14.79;100.00;101132.19;6126693;23;20096;-84
2022/07/04 03:02:19;;;;;;;2.85;0.90;;;;;;;14.77;100.00;101133.22;6126335;23;20408;-84
2022/07/04 03:04:45;;;;;;;3.97;1.40;;;;;;;14.80;100.00;101133.03;6126122;23;20440;-84
2022/07/04 03:07:10;;;;;;;2.80;1.25;;;;;;;14.84;100.00;101126.53;6124557;23;20077;-84
2022/07/04 03:09:36;;;;;;;3.20;1.50;;;;;;;14.80;100.00;101130.38;6126214;23;20085;-84
2022/07/04 03:12:01;;;;;;;1.67;1.23;;;;;;;14.85;100.00;101129.09;6126088;23;20426;-84
2022/07/04 03:14:27;;;;;;;1.65;0.90;;;;;;;14.84;100.00;101135.31;6126306;23;19998;-84
2022/07/04 03:16:52;;;;;;;3.33;1.55;;;;;;;14.68;100.00;101126.84;6126237;23;20006;-84
2022/07/04 03:19:18;;;;;;;4.32;1.10;;;;;;;14.73;100.00;101129.13;6124614;23;20077;-84
2022/07/04 03:21:43;;;;;;;4.05;1.25;;;;;;;14.77;100.00;101133.22;6126304;23;20006;-83
2022/07/04 03:24:09;;;;;;;2.63;0.80;;;;;;;14.80;100.00;101128.56;6126489;23;20053;-84
2022/07/04 03:26:34;;;;;;;4.03;0.98;;;;;;;14.67;100.00;101123.38;6125953;23;20429;-84
2022/07/04 03:29:00;;;;;;;6.20;0.90;;;;;;;14.80;100.00;101127.72;6125935;23;20005;-84
2022/07/04 03:31:28;;;;;;;4.53;1.00;;;;;;;14.86;100.00;101129.91;6126083;23;20006;-84
2022/07/04 03:33:54;;;;;;;1.73;1.00;;;;;;;14.85;100.00;101130.91;6126109;23;20006;-83
2022/07/04 03:36:20;;;;;;;6.40;1.35;;;;;;;14.79;100.00;101131.31;6126029;23;20086;-84
2022/07/04 03:38:45;;;;;;;2.90;1.10;;;;;;;14.77;100.00;101128.81;6125756;23;20429;-84
2022/07/04 03:41:11;;;;;;;7.18;1.08;;;;;;;14.65;100.00;101138.50;6126053;23;20002;-83
2022/07/04 03:43:37;;;;;;;2.47;1.13;;;;;;;14.68;100.00;101142.69;6125909;23;20332;-83
2022/07/04 03:46:02;;;;;;;2.60;1.20;;;;;;;14.68;100.00;101140.88;6126014;23;20029;-83
2022/07/04 03:48:28;;;;;;;2.55;0.70;;;;;;;14.67;100.00;101139.22;6124548;23;20010;-83
2022/07/04 03:50:53;;;;;;;2.88;0.90;;;;;;;14.54;100.00;101143.69;6125674;23;20456;-84
2022/07/04 03:53:19;;;;;;;2.92;2.00;;;;;;;14.54;100.00;101142.84;6125932;23;20006;-84
2022/07/04 03:55:45;;;;;;;6.32;1.75;;;;;;;14.62;100.00;101146.63;6124298;23;20001;-83
2022/07/04 03:58:10;;;;;;;4.95;2.13;;;;;;;14.67;100.00;101144.50;6125886;23;20002;-84
2022/07/04 04:00:36;;;;;;;4.38;1.73;;;;;;;14.73;100.00;101150.28;6126101;23;20006;-84
2022/07/04 04:03:01;;;;;;;3.17;1.48;;;;;;;14.71;100.00;101154.84;6123965;23;20005;-83
2022/07/04 04:05:27;;;;;;;3.97;1.88;;;;;;;14.59;100.00;101154.81;6148683;23;20073;-83
2022/07/04 04:08:01;;;;;;;5.82;2.13;;;;;;;14.73;100.00;101148.50;6148500;23;20016;-84
2022/07/04 04:10:30;;;;;;;3.83;2.35;;;;;;;14.74;100.00;101160.75;6125822;23;20038;-84
2022/07/04 04:12:56;;;;;;;6.82;3.15;;;;;;;14.70;100.00;101169.03;6125549;23;20373;-83
2022/07/04 04:15:22;;;;;;;8.32;3.67;;;;;;;14.66;100.00;101163.94;6125765;23;20455;-84
2022/07/04 04:17:47;;;;;;;8.00;4.65;;;;;;;14.72;100.00;101164.47;6125560;23;20002;-83
2022/07/04 04:20:13;;;;;;;9.10;4.40;;;;;;;14.80;100.00;101170.88;6125713;23;20333;-83
2022/07/04 04:22:38;;;;;;;5.78;3.75;;;;;;;14.90;100.00;101165.75;6125595;23;20006;-83
2022/07/04 04:25:04;;;;;;;5.68;3.20;;;;;;;14.81;100.00;101163.78;6125508;23;20033;-83
2022/07/04 04:27:29;;;;;;;8.27;3.65;;;;;;;14.87;100.00;101158.06;6125545;23;19998;-84
2022/07/04 04:29:55;;;;;;;5.28;3.72;;;;;;;15.05;100.00;101161.13;6125632;23;20013;-84
2022/07/04 04:32:21;;;;;;;6.55;3.75;;;;;;;14.81;100.00;101147.91;6125335;23;20036;-84
2022/07/04 04:34:47;;;;;;;5.25;3.83;;;;;;;14.93;100.00;101154.09;6125984;23;20005;-83
2022/07/04 04:37:12;;;;;;;6.80;3.58;;;;;;;15.13;100.00;101155.28;6123966;23;20456;-83
2022/07/04 04:39:39;;;;;;;4.68;3.47;;;;;;;15.29;100.00;101161.09;6125106;23;20460;-83
2022/07/04 04:42:04;;;;;;;10.45;4.93;;;;;;;15.05;100.00;101159.31;6124547;23;20002;-84
2022/07/04 04:44:29;;;;;;;8.85;3.70;;;;;;;15.36;100.00;101167.56;6123618;23;20009;-84
2022/07/04 04:46:55;;;;;;;5.38;3.47;;;;;;;15.49;100.00;101166.66;6148138;23;20006;-83
2022/07/04 04:49:20;;;;;;;15.73;4.00;;;;;;;15.61;100.00;101171.84;6125080;23;20065;-84
2022/07/04 04:51:45;;;;;;;6.80;3.80;;;;;;;15.68;100.00;101172.22;6125017;23;20025;-83
2022/07/04 04:54:11;;;;;;;5.85;3.15;;;;;;;15.85;100.00;101170.94;6125179;23;20346;-83
2022/07/04 04:56:36;;;;;;;8.35;3.45;;;;;;;15.97;100.00;101171.78;6125103;23;20330;-83
2022/07/04 04:59:02;;;;;;;5.35;3.15;;;;;;;16.32;100.00;101168.16;6125228;23;20386;-83
2022/07/04 05:01:27;;;;;;;7.80;2.92;;;;;;;16.59;100.00;101165.91;6124982;23;20016;-83
2022/07/04 05:03:53;;;;;;;9.88;3.03;;;;;;;16.72;100.00;101159.59;6125004;23;20033;-83
2022/07/04 05:06:18;;;;;;;6.05;2.65;;;;;;;16.80;100.00;101165.13;6124626;23;20077;-83
2022/07/04 05:08:44;;;;;;;13.02;2.60;;;;;;;16.89;100.00;101164.41;6124882;23;20080;-83
2022/07/04 05:11:09;;;;;;;5.55;2.50;;;;;;;17.00;100.00;101164.38;6125021;23;20284;-84
2022/07/04 05:13:34;;;;;;;7.20;2.55;;;;;;;17.10;100.00;101161.78;6125444;23;20013;-84
2022/07/04 05:16:00;;;;;;;8.13;2.60;;;;;;;16.85;100.00;101170.94;6124969;23;20013;-84
2022/07/04 05:18:25;;;;;;;3.83;2.28;;;;;;;17.20;100.00;101167.13;6124889;23;20010;-83
2022/07/04 05:20:50;;;;;;;5.43;2.20;;;;;;;17.39;100.00;101172.59;6125340;23;20092;-83
2022/07/04 05:23:16;;;;;;;3.10;2.15;;;;;;;17.57;100.00;101167.53;6124907;23;20005;-84
2022/07/04 05:25:41;;;;;;;10.15;2.17;;;;;;;17.56;100.00;101168.50;6124887;23;20006;-83
2022/07/04 05:28:07;;;;;;;2.90;1.80;;;;;;;17.68;100.00;101174.59;6125020;23;20012;-84
2022/07/04 05:30:32;;;;;;;5.97;2.75;;;;;;;17.87;100.00;101165.91;6124750;23;20010;-84
2022/07/04 05:32:58;;;;;;;4.32;2.08;;;;;;;18.13;100.00;101176.09;6124844;23;20006;-84
2022/07/04 05:35:24;;;;;;;4.63;2.15;;;;;;;18.31;100.00;101171.78;6124751;23;20006;-83
2022/07/04 05:37:50;;;;;;;5.82;2.42;;;;;;;18.27;100.00;101164.25;6122849;23;20040;-83
2022/07/04 05:40:15;;;;;;;6.50;2.67;;;;;;;18.18;100.00;101164.03;6124601;23;20012;-83
2022/07/04 05:42:41;;;;;;;7.63;2.78;;;;;;;18.31;100.00;101162.97;6123072;23;20433;-83
2022/07/04 05:45:07;;;;;;;7.25;2.67;;;;;;;18.47;100.00;101154.47;6124658;23;20025;-83
2022/07/04 05:47:32;;;;;;;7.70;2.92;;;;;;;18.35;100.00;101165.22;6124895;23;20012;-84
2022/07/04 05:50:00;;;;;;;8.65;3.08;;;;;;;18.70;100.00;101168.34;6124044;23;20009;-84
2022/07/04 05:52:25;;;;;;;6.20;2.83;;;;;;;18.89;100.00;101164.91;6123745;23;20425;-83
2022/07/04 05:54:50;;;;;;;10.68;3.42;;;;;;;18.77;100.00;101169.50;6124316;23;20034;-83
2022/07/04 05:57:16;;;;;;;6.72;2.55;;;;;;;18.99;100.00;101163.91;6124389;23;20011;-83
2022/07/04 05:59:41;;;;;;;9.60;3.05;;;;;;;18.99;100.00;101158.59;6124594;23;20014;-83
2022/07/04 06:02:07;;;;;;;5.53;2.72;;;;;;;19.36;100.00;101157.84;6124443;23;20413;-82
2022/07/04 06:04:32;;;;;;;7.05;2.92;;;;;;;19.52;100.00;101153.75;6124393;23;20029;-82
2022/07/04 06:06:58;;;;;;;10.35;2.80;;;;;;;19.42;100.00;101153.78;6123687;23;20361;-83
2022/07/04 06:09:23;;;;;;;11.77;3.60;;;;;;;19.56;100.00;101149.81;6147452;23;20060;-82
2022/07/04 06:11:48;;;;;;;14.90;3.28;;;;;;;19.31;100.00;101146.81;6124304;23;20006;-82
2022/07/04 06:14:14;;;;;;;8.63;3.17;;;;;;;19.25;100.00;101143.84;6124511;23;20009;-83
2022/07/04 06:16:39;;;;;;;10.85;3.00;;;;;;;19.41;100.00;101160.94;6124543;23;20058;-83
2022/07/04 06:19:04;;;;;;;8.75;3.05;;;;;;;19.62;100.00;101154.56;6125242;23;20002;-83
2022/07/04 06:21:30;;;;;;;10.57;3.40;;;;;;;19.85;100.00;101163.06;6123580;23;20374;-82
2022/07/04 06:23:57;;;;;;;7.38;2.63;;;;;;;20.43;100.00;101148.59;6124183;23;20005;-83
2022/07/04 06:26:23;;;;;;;7.47;2.50;;;;;;;19.90;100.00;101149.31;6124577;23;20333;-83
2022/07/04 06:28:48;;;;;;;9.20;2.20;;;;;;;20.32;100.00;101143.47;6122795;23;20417;-84
2022/07/04 06:31:14;;;;;;;7.70;2.10;;;;;;;20.44;100.00;101150.28;6123995;23;20006;-83
2022/07/04 06:36:23;;;;;;;3.92;1.80;;;;;;;21.53;97.51;101146.56;6123348;23;20017;-84
2022/07/04 06:38:49;;;;;;;6.60;1.92;;;;;;;22.09;92.39;101139.81;6124460;23;20006;-85
2022/07/04 06:41:14;;;;;;;5.65;1.50;;;;;;;23.23;84.12;101135.66;6124327;23;20061;-85
2022/07/04 06:43:40;;;;;;;4.00;1.40;;;;;;;25.18;73.76;101134.00;6124409;23;20006;-85
2022/07/04 06:46:05;;;;;;;6.18;1.35;;;;;;;28.33;55.76;101126.00;6124585;23;20002;-85
2022/07/04 06:48:30;;;;;;;6.35;1.10;;;;;;;28.91;50.26;101139.03;6146780;23;20017;-84
2022/07/04 06:50:56;;;;;;;5.70;0.93;;;;;;;31.61;42.92;101134.53;6123993;23;20014;-84
2022/07/04 06:53:21;;;;;;;9.50;1.35;;;;;;;31.84;41.01;101131.13;6123427;23;20049;-82
2022/07/04 06:55:46;;;;;;;4.30;0.93;;;;;;;33.21;37.17;101128.72;6124174;23;20002;-84
2022/07/04 06:58:14;;;;;;;3.53;0.68;;;;;;;33.44;36.64;101128.69;6124227;23;20421;-85
2022/07/04 07:00:41;;;;;;;3.75;0.70;;;;;;;35.59;33.03;101130.81;6122989;23;20325;-85
2022/07/04 07:03:06;;;;;;;2.78;1.23;;;;;;;36.72;30.50;101133.69;6125920;23;20379;-85
2022/07/04 07:05:32;;;;;;;2.10;0.77;;;;;;;35.62;32.05;101127.59;6125989;23;20006;-85
2022/07/04 07:07:57;;;;;;;4.53;0.50;;;;;;;33.80;33.20;101132.19;6126154;23;20013;-85
2022/07/04 07:10:22;;;;;;;2.67;0.73;;;;;;;31.52;36.82;101144.88;6126223;23;20041;-85
2022/07/04 07:12:48;;;;;;;9.15;0.70;;;;;;;28.53;40.03;101142.28;6126148;23;20013;-85
2022/07/04 07:15:13;;;;;;;3.25;0.40;;;;;;;27.35;44.31;101145.06;6125675;23;20012;-85
2022/07/04 07:17:40;;;;;;;3.35;0.60;;;;;;;27.36;46.20;101152.09;6124680;23;20002;-85
2022/07/04 07:20:07;;;;;;;6.60;0.75;;;;;;;32.63;35.34;101146.63;6125827;23;20049;-85
2022/07/04 07:22:32;;;;;;;2.65;0.50;;;;;;;33.23;32.63;101142.91;6125646;23;20006;-85
2022/07/04 07:24:58;;;;;;;2.55;0.50;;;;;;;31.36;35.24;101142.69;6125560;23;20337;-84
2022/07/04 07:27:23;;;;;;;1.60;0.38;;;;;;;33.28;33.58;101145.75;6125540;23;20456;-85
2022/07/04 07:29:48;;;;;;;3.30;0.60;;;;;;;31.99;34.30;101145.16;6123440;23;20013;-84
2022/07/04 07:32:14;;;;;;;2.05;0.43;;;;;;;29.45;38.67;101153.34;6125748;23;20030;-85
2022/07/04 07:34:40;;;;;;;4.13;0.65;;;;;;;30.36;37.39;101152.44;6125538;23;20457;-85
2022/07/04 07:37:06;;;;;;;4.65;0.50;;;;;;;29.83;38.79;101142.66;6125572;23;20337;-85
2022/07/04 07:39:31;;;;;;;3.60;0.60;;;;;;;30.47;38.79;101153.63;6125520;23;20006;-85
2022/07/04 07:41:56;;;;;;;4.00;0.60;;;;;;;31.76;34.51;101147.72;6125972;23;20009;-85
2022/07/04 07:44:22;;;;;;;1.73;0.25;;;;;;;33.23;32.22;101153.78;6124022;23;20502;-84
2022/07/04 07:46:47;;;;;;;4.07;0.50;;;;;;;33.63;30.68;101153.06;6125807;23;20429;-84
2022/07/04 07:49:13;;;;;;;1.75;0.57;;;;;;;36.16;29.97;101146.00;6126045;23;20417;-84
2022/07/04 07:51:38;;;;;;;4.75;0.40;;;;;;;34.33;30.53;101150.13;6123963;23;20329;-84
2022/07/04 07:54:03;;;;;;;2.25;0.40;;;;;;;32.55;31.85;101158.63;6125763;23;20413;-85
2022/07/04 07:56:29;;;;;;;3.58;0.52;;;;;;;32.20;32.99;101162.84;6125406;23;20017;-84
2022/07/04 07:58:54;;;;;;;2.58;0.50;;;;;;;31.53;33.19;101167.41;6125582;23;20006;-84
2022/07/04 08:01:20;;;;;;;2.78;0.40;;;;;;;30.81;36.49;101165.06;6123780;23;20061;-84
2022/07/04 08:06:30;;;;;;;2.85;0.50;;;;;;;34.70;30.46;101159.81;6125507;23;20016;-84
2022/07/04 08:08:56;;;;;;;7.78;5.55;;;;;;;35.51;29.12;101165.69;6125291;23;20064;-84
2022/07/04 08:11:21;;;;;;;13.18;9.38;;;;;;;33.44;30.67;101168.69;6125797;23;20002;-84
2022/07/04 08:13:47;;;;;;;10.85;9.65;;;;;;;30.56;34.68;101170.44;6124712;23;20009;-84
2022/07/04 08:16:12;;;;;;;8.48;5.80;;;;;;;28.39;36.99;101173.81;6124818;23;20005;-84
2022/07/04 08:18:38;;;;;;;8.20;5.05;;;;;;;28.20;38.42;101167.34;6124788;23;19998;-84
2022/07/04 08:21:04;;;;;;;4.10;0.60;;;;;;;26.82;43.60;101168.88;6125265;23;20085;-84
2022/07/04 08:23:31;;;;;;;2.67;0.50;;;;;;;26.25;46.99;101176.72;6124486;23;20511;-83
2022/07/04 08:25:58;;;;;;;3.20;0.60;;;;;;;25.47;50.50;101176.22;6125268;23;20030;-83
2022/07/04 08:28:23;;;;;;;4.45;0.80;;;;;;;24.39;54.68;101179.88;6125302;23;20413;-83
2022/07/04 08:30:49;;;;;;;5.30;0.57;;;;;;;24.09;56.98;101179.69;6124473;23;20010;-84
2022/07/04 08:33:14;;;;;;;4.38;0.73;;;;;;;24.00;57.70;101180.72;6124111;23;20038;-84
2022/07/04 08:35:39;;;;;;;7.40;1.02;;;;;;;23.53;61.17;101182.31;6125115;23;20396;-83
2022/07/04 08:38:05;;;;;;;6.28;1.13;;;;;;;23.31;60.12;101177.69;6147495;23;20253;-83
2022/07/04 08:40:31;;;;;;;2.35;0.40;;;;;;;23.00;60.06;101180.16;6124928;23;20068;-83
2022/07/04 08:42:57;;;;;;;5.10;0.88;;;;;;;22.74;60.08;101175.78;6123596;23;20052;-83
2022/07/04 08:45:27;;;;;;;12.15;6.93;;;;;;;22.87;61.03;101180.69;6125139;23;20421;-84
2022/07/04 08:48:02;;;;;;;2.78;0.98;;;;;;;22.77;61.27;101178.97;6124460;23;20002;-84
2022/07/04 08:50:33;;;;;;;4.00;0.98;;;;;;;22.70;63.35;101182.47;6123465;23;20010;-83
2022/07/04 08:53:13;;;;;;;3.88;0.95;;;;;;;22.64;66.15;101183.16;6122103;23;20325;-84
2022/07/04 08:58:29;;;;;;;3.88;0.82;;;;;;;22.26;67.09;101185.38;6124599;23;20084;-84
2022/07/04 09:00:58;;;;;;;6.47;0.82;;;;;;;22.39;67.41;101172.38;6146269;23;20437;-83
2022/07/04 09:03:26;;;;;;;5.38;0.90;;;;;;;22.10;67.92;101186.97;6123519;23;20002;-83
2022/07/04 09:05:52;;;;;;;5.93;0.57;;;;;;;22.10;69.21;101181.63;6124137;23;20002;-83
2022/07/04 09:08:18;;;;;;;5.03;0.73;;;;;;;21.96;70.29;101179.56;6124234;23;20002;-83
2022/07/04 09:10:43;;;;;;;9.38;3.55;;;;;;;21.96;71.56;101179.56;6124156;23;20006;-83
2022/07/04 09:13:11;;;;;;;13.13;4.43;;;;;;;21.47;73.98;101182.78;6121702;23;20060;-83
2022/07/04 09:15:37;;;;;;;8.75;3.35;;;;;;;21.32;76.71;101178.94;6124246;23;20337;-82
2022/07/04 09:18:03;;;;;;;7.70;3.95;;;;;;;21.42;77.55;101184.19;6124325;23;20013;-83
2022/07/04 09:20:32;;;;;;;6.72;1.65;;;;;;;21.21;78.91;101180.06;6124329;23;19998;-83
2022/07/04 09:22:57;;;;;;;22.77;8.45;;;;;;;21.35;78.16;101179.47;6123318;23;20428;-83
2022/07/04 09:25:24;;;;;;;12.93;4.57;;;;;;;21.10;80.08;101177.63;6123044;23;20078;-83
2022/07/04 09:27:52;;;;;;;8.55;4.53;;;;;;;21.57;77.20;101177.31;6124224;23;20343;-83
2022/07/04 09:30:23;;;;;;;7.60;1.60;;;;;;;21.77;75.51;101173.41;6124756;23;20429;-83
2022/07/04 09:32:52;;;;;;;9.25;1.52;;;;;;;22.20;72.58;101170.78;6123846;23;20506;-83
2022/07/04 09:35:22;;;;;;;5.63;0.70;;;;;;;22.33;70.36;101176.56;6124111;23;20002;-83
2022/07/04 09:37:52;;;;;;;2.75;0.73;;;;;;;22.16;71.10;101180.97;6124220;23;20056;-83
2022/07/04 09:40:32;;;;;;;6.38;2.13;;;;;;;22.33;67.69;101178.38;6124812;23;20012;-83
2022/07/04 09:42:59;;;;;;;13.95;7.60;;;;;;;22.65;65.04;101172.28;6123547;23;20029;-83
2022/07/04 09:45:26;;;;;;;5.32;1.33;;;;;;;22.85;63.70;101180.84;6122877;23;20056;-83
2022/07/04 09:47:57;;;;;;;3.92;1.10;;;;;;;22.41;64.44;101185.59;6123819;23;20010;-83
2022/07/04 09:50:23;;;;;;;;;;;;;;;22.33;65.91;101176.56;6124043;23;20085;-83
2022/07/04 09:52:54;;;;;;;14.90;7.70;;;;;;;22.46;65.84;101170.72;6121482;23;20516;-83
2022/07/04 09:55:30;;;;;;;47.15;27.10;;;;;;;22.36;67.60;101186.09;6124042;23;20013;-83
2022/07/04 09:57:58;;;;;;;31.67;18.10;;;;;;;22.64;65.07;101172.44;6124159;23;20009;-83
2022/07/04 10:00:27;;;;;;;23.08;13.27;;;;;;;22.16;68.35;101180.13;6122978;23;20056;-83
2022/07/04 10:02:54;;;;;;;20.35;10.40;;;;;;;22.20;66.95;101177.97;6122900;23;20006;-83
2022/07/04 10:05:22;;;;;;;16.70;6.65;;;;;;;22.40;67.81;101184.75;6124017;23;20009;-84
2022/07/04 10:07:47;;;;;;;12.93;5.40;;;;;;;22.86;65.38;101187.03;6123821;23;20010;-84
2022/07/04 10:10:25;;;;;;;10.80;2.88;;;;;;;23.09;63.90;101181.88;6124388;23;20018;-84
2022/07/04 10:12:52;;;;;;;29.95;11.27;;;;;;;22.87;64.90;101168.13;6123050;23;20041;-82
2022/07/04 10:15:18;;;;;;;14.23;3.90;;;;;;;23.06;64.50;101172.31;6123759;23;20041;-82
2022/07/04 10:17:44;;;;;;;8.85;3.60;;;;;;;23.53;61.97;101168.09;6123323;23;20418;-82
2022/07/04 10:20:11;;;;;;;32.17;13.60;;;;;;;23.31;62.37;101170.47;6123787;23;20002;-82
2022/07/04 10:22:37;;;;;;;28.05;11.52;;;;;;;23.49;61.07;101164.09;6123367;23;20002;-82
2022/07/04 10:25:08;;;;;;;5.53;1.33;;;;;;;22.36;65.31;101175.38;6124190;23;20043;-83
2022/07/04 10:27:34;;;;;;;7.97;1.52;;;;;;;22.65;66.24;101174.09;6124020;23;20024;-83
2022/07/04 10:30:01;;;;;;;9.57;3.97;;;;;;;23.35;63.38;101171.81;6124014;23;20010;-83
2022/07/04 10:32:29;;;;;;;6.07;1.20;;;;;;;24.82;57.74;101166.91;6123759;23;20010;-83
2022/07/04 10:34:54;;;;;;;5.35;1.65;;;;;;;26.37;52.18;101160.91;6123746;23;20010;-83
2022/07/04 10:37:21;;;;;;;11.30;1.13;;;;;;;28.48;46.79;101156.38;6125200;23;20006;-83
2022/07/04 10:39:46;;;;;;;5.97;2.13;;;;;;;29.40;42.75;101153.16;6125991;23;20006;-83
2022/07/04 10:42:25;;;;;;;8.30;1.50;;;;;;;29.96;40.06;101151.78;6124996;23;20481;-83
2022/07/04 10:44:51;;;;;;;18.85;7.65;;;;;;;29.03;41.93;101158.16;6125561;23;20005;-82
2022/07/04 10:47:27;;;;;;;12.40;5.05;;;;;;;27.88;43.23;101148.09;6125665;23;20430;-83
2022/07/04 10:49:52;;;;;;;3.80;0.95;;;;;;;28.11;43.46;101149.63;6124210;23;20081;-83
2022/07/04 10:52:18;;;;;;;6.65;2.17;;;;;;;29.61;41.57;101143.94;6125552;23;20433;-83
2022/07/04 10:54:44;;;;;;;3.90;0.98;;;;;;;30.23;39.90;101147.91;6125732;23;20481;-83
2022/07/04 10:57:11;;;;;;;4.50;0.90;;;;;;;30.00;38.83;101148.41;6126106;23;20011;-83
2022/07/04 10:59:38;;;;;;;2.22;0.63;;;;;;;29.19;39.53;101146.94;6125861;23;20006;-84
2022/07/04 11:02:03;;;;;;;3.72;0.52;;;;;;;28.42;40.28;101142.88;6123511;23;20460;-83
2022/07/04 11:04:47;;;;;;;5.03;1.25;;;;;;;29.35;39.07;101142.13;6125867;23;20006;-83
2022/07/04 11:07:16;;;;;;;14.48;5.38;;;;;;;30.10;39.04;101142.53;6125592;23;20036;-84
2022/07/04 11:09:45;;;;;;;4.18;0.93;;;;;;;31.41;38.42;101142.84;6124171;23;20013;-83
2022/07/04 11:12:14;;;;;;;10.48;3.08;;;;;;;30.53;35.13;101146.47;6125139;23;20010;-83
2022/07/04 11:14:43;;;;;;;9.20;3.63;;;;;;;30.79;35.14;101140.06;6125635;23;20010;-83
2022/07/04 11:17:14;;;;;;;8.85;3.75;;;;;;;30.97;34.94;101137.44;6125598;23;20005;-83
2022/07/04 11:19:40;;;;;;;3.17;0.70;;;;;;;30.12;35.84;101136.91;6125796;23;20020;-84
2022/07/04 11:22:09;;;;;;;3.72;1.90;;;;;;;29.94;35.55;101145.72;6125202;23;20432;-83
2022/07/04 11:24:35;;;;;;;2.97;0.50;;;;;;;30.78;34.56;101139.22;6125683;23;20049;-83
2022/07/04 11:27:01;;;;;;;3.13;1.17;;;;;;;29.34;35.83;101137.75;6125430;23;20010;-83
2022/07/04 11:29:28;;;;;;;7.40;1.90;;;;;;;30.34;35.41;101138.28;6125569;23;20377;-83